Time;durP1;ratioP1;P1;durP2;ratioP2;P2;SDS_P1;SDS_P2;PMS_P1;PMS_P2;Temp;Humidity;BMP_temperature;BMP_pressure;BME280_temperature;BME280_humidity;BME280_pressure;Samples;Min_cycle;Max_cycle;Signal;HPM_P1;HPM_P2
2021/03/03 00:01:45;;;;;;;16.17;11.30;;;5.90;99.90;;;;;;5112100;27;20177;-51
2021/03/03 00:04:11;;;;;;;15.10;11.43;;;5.80;99.90;;;;;;5132976;27;20207;-51
2021/03/03 00:06:36;;;;;;;18.93;13.83;;;5.90;99.90;;;;;;5101215;28;20211;-51
2021/03/03 00:09:02;;;;;;;19.80;11.23;;;5.70;99.90;;;;;;5103566;27;20724;-51
2021/03/03 00:11:28;;;;;;;21.67;11.48;;;5.60;99.90;;;;;;5115028;27;21036;-51
2021/03/03 00:13:54;;;;;;;17.27;11.50;;;5.50;99.90;;;;;;5114951;27;20208;-51
2021/03/03 00:16:19;;;;;;;16.40;10.93;;;5.70;99.90;;;;;;5114188;27;20580;-51
2021/03/03 00:18:45;;;;;;;16.30;10.90;;;5.40;99.90;;;;;;5132848;27;20592;-51
2021/03/03 00:21:11;;;;;;;18.93;12.00;;;5.60;99.90;;;;;;5110400;27;20192;-51
2021/03/03 00:23:36;;;;;;;16.30;11.43;;;5.50;99.90;;;;;;5114801;27;20217;-51
2021/03/03 00:26:02;;;;;;;20.00;10.90;;;5.70;99.90;;;;;;5100245;27;20638;-52
2021/03/03 00:28:27;;;;;;;18.33;11.80;;;5.70;99.90;;;;;;5114856;27;20185;-51
2021/03/03 00:31:02;;;;;;;15.57;11.27;;;5.50;99.90;;;;;;5114113;27;20225;-51
2021/03/03 00:33:28;;;;;;;16.05;10.82;;;5.80;99.90;;;;;;5114403;27;20185;-51
2021/03/03 00:35:54;;;;;;;16.13;10.93;;;5.70;99.90;;;;;;5113463;27;20185;-51
2021/03/03 00:38:22;;;;;;;17.40;11.30;;;5.40;99.90;;;;;;5113589;27;20775;-51
2021/03/03 00:40:48;;;;;;;19.95;12.50;;;5.40;99.90;;;;;;5113875;27;20689;-51
2021/03/03 00:43:14;;;;;;;20.47;11.30;;;5.50;99.90;;;;;;5114550;27;20217;-51
2021/03/03 00:45:39;;;;;;;18.20;11.67;;;5.60;99.90;;;;;;5114033;27;20439;-51
2021/03/03 00:48:11;;;;;;;19.23;11.77;;;5.40;99.90;;;;;;5114453;27;20180;-51
2021/03/03 00:50:37;;;;;;;14.63;10.98;;;5.50;99.90;;;;;;5113770;27;20269;-51
2021/03/03 00:53:11;;;;;;;13.10;10.43;;;5.40;99.90;;;;;;5114405;27;20254;-51
2021/03/03 00:55:37;;;;;;;19.08;12.13;;;5.40;99.90;;;;;;5098142;27;20188;-51
2021/03/03 00:58:02;;;;;;;16.77;11.60;;;5.20;99.90;;;;;;5133138;27;20184;-51
2021/03/03 01:00:31;;;;;;;18.23;13.07;;;5.20;99.90;;;;;;5112731;27;20191;-51
2021/03/03 01:03:04;;;;;;;18.10;11.38;;;5.30;99.90;;;;;;5113902;27;20193;-51
2021/03/03 01:05:32;;;;;;;15.18;10.88;;;5.40;99.90;;;;;;5114447;27;20192;-51
2021/03/03 01:07:58;;;;;;;17.55;11.52;;;5.30;99.90;;;;;;5113276;27;20201;-51
2021/03/03 01:10:27;;;;;;;17.73;11.93;;;5.30;99.90;;;;;;5114193;27;20621;-51
2021/03/03 01:12:52;;;;;;;18.67;12.30;;;5.10;99.90;;;;;;5114460;27;20506;-51
2021/03/03 01:15:24;;;;;;;15.60;10.87;;;5.10;99.90;;;;;;5113452;27;20383;-51
2021/03/03 01:17:59;;;;;;;16.83;12.25;;;5.10;99.90;;;;;;5113627;27;20243;-51
2021/03/03 01:20:25;;;;;;;20.33;12.65;;;5.00;99.90;;;;;;5113519;27;20181;-51
2021/03/03 01:22:54;;;;;;;17.98;11.85;;;4.50;99.90;;;;;;5100125;27;20178;-51
2021/03/03 01:25:23;;;;;;;15.10;10.40;;;4.90;99.90;;;;;;5113494;27;20191;-51
2021/03/03 01:27:49;;;;;;;18.02;11.57;;;5.40;99.90;;;;;;5113199;27;20229;-51
2021/03/03 01:30:15;;;;;;;16.20;11.47;;;5.60;99.90;;;;;;5113652;27;20231;-51
2021/03/03 01:32:40;;;;;;;17.02;12.38;;;5.50;99.90;;;;;;5113443;27;20235;-51
2021/03/03 01:35:07;;;;;;;16.73;11.70;;;5.80;99.90;;;;;;5113254;27;20177;-51
2021/03/03 01:37:38;;;;;;;17.15;11.85;;;5.40;99.90;;;;;;5112841;27;20205;-51
2021/03/03 01:40:14;;;;;;;19.83;12.70;;;5.40;99.90;;;;;;5112572;27;20192;-51
2021/03/03 01:42:42;;;;;;;17.45;12.30;;;5.10;99.90;;;;;;5113482;27;20199;-51
2021/03/03 01:45:12;;;;;;;18.95;11.60;;;5.20;99.90;;;;;;5113190;27;20190;-51
2021/03/03 01:47:43;;;;;;;15.82;11.60;;;5.20;99.90;;;;;;5112562;27;20211;-51
2021/03/03 01:50:16;;;;;;;19.20;12.63;;;5.20;99.90;;;;;;5112950;27;20203;-50
2021/03/03 01:52:50;;;;;;;16.25;11.40;;;5.30;99.90;;;;;;5112100;27;20195;-51
2021/03/03 01:55:16;;;;;;;17.27;11.65;;;5.30;99.90;;;;;;5112414;27;20389;-51
2021/03/03 01:57:43;;;;;;;18.80;11.40;;;5.50;99.90;;;;;;5112150;27;20228;-50
2021/03/03 02:00:15;;;;;;;17.20;11.70;;;5.30;99.90;;;;;;5111758;27;20435;-51
2021/03/03 02:02:41;;;;;;;16.08;11.48;;;5.20;99.90;;;;;;5111217;27;20216;-51
2021/03/03 02:05:11;;;;;;;18.73;11.70;;;5.30;99.90;;;;;;5112353;27;20685;-51
2021/03/03 02:07:40;;;;;;;19.08;12.35;;;5.40;99.90;;;;;;5112541;27;20292;-51
2021/03/03 02:10:19;;;;;;;17.05;11.45;;;5.20;99.90;;;;;;5112138;27;20247;-51
2021/03/03 02:13:10;;;;;;;21.35;12.85;;;5.20;99.90;;;;;;5113053;27;20217;-51
2021/03/03 02:15:42;;;;;;;17.58;11.82;;;5.30;99.90;;;;;;5101270;27;20205;-51
2021/03/03 02:18:10;;;;;;;19.63;11.48;;;5.50;99.90;;;;;;5111291;27;20192;-51
2021/03/03 02:20:56;;;;;;;16.92;10.95;;;5.10;99.90;;;;;;5110116;27;20262;-51
2021/03/03 02:23:53;;;;;;;16.08;12.02;;;5.50;99.90;;;;;;5112311;27;20207;-50
2021/03/03 02:26:21;;;;;;;19.00;11.55;;;5.70;99.90;;;;;;5112275;27;20205;-51
2021/03/03 02:28:52;;;;;;;20.02;12.00;;;5.50;99.90;;;;;;5111793;27;20177;-51
2021/03/03 02:31:19;;;;;;;16.55;11.70;;;5.40;99.90;;;;;;5130725;27;20353;-51
2021/03/03 02:33:48;;;;;;;17.08;11.68;;;5.50;99.90;;;;;;5112428;27;20602;-51
2021/03/03 02:36:14;;;;;;;21.25;12.13;;;5.40;99.90;;;;;;5111690;27;20229;-51
2021/03/03 02:38:41;;;;;;;17.05;11.63;;;5.40;99.90;;;;;;5110096;27;20188;-51
2021/03/03 02:41:10;;;;;;;19.50;12.48;;;5.50;99.90;;;;;;5111659;27;20182;-51
2021/03/03 02:43:38;;;;;;;18.38;12.48;;;5.50;99.90;;;;;;5111457;27;20202;-51
2021/03/03 02:46:16;;;;;;;17.60;11.80;;;5.20;99.90;;;;;;5112187;27;20210;-51
2021/03/03 02:48:45;;;;;;;17.13;11.45;;;5.70;99.90;;;;;;5111533;27;20329;-51
2021/03/03 02:51:12;;;;;;;16.33;12.32;;;5.70;99.90;;;;;;5129693;27;20203;-51
2021/03/03 02:53:39;;;;;;;19.48;12.23;;;5.80;99.90;;;;;;5130597;27;20181;-51
2021/03/03 02:56:06;;;;;;;17.35;11.90;;;5.70;99.90;;;;;;5112138;28;20206;-51
2021/03/03 02:58:31;;;;;;;19.42;12.25;;;5.60;99.90;;;;;;5112075;27;20196;-50
2021/03/03 03:01:00;;;;;;;17.40;12.30;;;5.50;99.90;;;;;;5111520;27;20196;-51
2021/03/03 03:03:43;;;;;;;21.58;13.10;;;5.50;99.90;;;;;;5112122;27;20195;-51
2021/03/03 03:06:18;;;;;;;17.10;13.18;;;5.50;99.90;;;;;;5111213;27;20303;-51
2021/03/03 03:08:46;;;;;;;17.30;11.55;;;5.30;99.90;;;;;;5130213;27;20188;-51
2021/03/03 03:11:21;;;;;;;14.35;10.75;;;5.20;99.90;;;;;;5129066;28;20212;-51
2021/03/03 03:13:49;;;;;;;18.00;11.95;;;5.10;99.90;;;;;;5107568;28;20178;-51
2021/03/03 03:16:16;;;;;;;26.30;15.85;;;5.40;99.90;;;;;;5106066;28;20710;-51
2021/03/03 03:18:46;;;;;;;18.10;12.57;;;5.50;99.90;;;;;;5104102;28;20282;-51
2021/03/03 03:21:15;;;;;;;15.90;11.32;;;5.50;99.90;;;;;;5107426;28;20251;-51
2021/03/03 03:23:41;;;;;;;23.40;14.38;;;5.30;99.90;;;;;;5130401;28;20212;-50
2021/03/03 03:26:07;;;;;;;16.45;11.88;;;5.20;99.90;;;;;;5111174;28;20211;-51
2021/03/03 03:28:40;;;;;;;15.70;11.50;;;5.00;99.90;;;;;;5111332;28;20183;-51
2021/03/03 03:31:07;;;;;;;19.95;12.45;;;5.10;99.90;;;;;;5112255;27;20764;-51
2021/03/03 03:33:34;;;;;;;18.30;11.95;;;5.00;99.90;;;;;;5115405;27;20188;-51
2021/03/03 03:36:04;;;;;;;16.90;11.82;;;5.00;99.90;;;;;;5134152;27;20292;-50
2021/03/03 03:38:32;;;;;;;18.55;12.35;;;4.90;99.90;;;;;;5115002;27;20188;-51
2021/03/03 03:41:03;;;;;;;14.23;11.85;;;5.00;99.90;;;;;;5134144;27;20261;-51
2021/03/03 03:43:32;;;;;;;18.35;12.57;;;5.20;99.90;;;;;;5115569;27;20176;-51
2021/03/03 03:45:59;;;;;;;17.25;12.48;;;5.10;99.90;;;;;;5114660;27;20575;-51
2021/03/03 03:48:25;;;;;;;17.20;12.65;;;5.20;99.90;;;;;;5113091;27;20176;-50
2021/03/03 03:50:51;;;;;;;17.60;11.60;;;5.30;99.90;;;;;;5132752;27;20215;-51
2021/03/03 03:53:18;;;;;;;16.45;12.02;;;4.60;99.90;;;;;;5101170;27;20435;-51
2021/03/03 03:55:44;;;;;;;16.88;10.80;;;4.80;99.90;;;;;;5133585;27;20180;-51
2021/03/03 03:58:09;;;;;;;19.37;11.77;;;5.30;99.90;;;;;;5114803;27;20701;-51
2021/03/03 04:00:35;;;;;;;17.90;12.03;;;5.40;99.90;;;;;;5116141;27;20243;-51
2021/03/03 04:03:01;;;;;;;20.17;13.00;;;5.30;99.90;;;;;;5134392;27;20240;-51
2021/03/03 04:05:27;;;;;;;17.42;11.90;;;5.10;99.90;;;;;;5115650;27;20189;-51
2021/03/03 04:07:53;;;;;;;16.70;12.02;;;5.10;99.90;;;;;;5114505;27;20199;-51
2021/03/03 04:10:23;;;;;;;17.85;11.85;;;5.00;99.90;;;;;;5133728;27;20195;-52
2021/03/03 04:12:49;;;;;;;17.52;11.80;;;5.10;99.90;;;;;;5114862;27;20210;-51
2021/03/03 04:15:15;;;;;;;20.87;12.77;;;5.10;99.90;;;;;;5114644;27;20188;-51
2021/03/03 04:17:41;;;;;;;20.55;12.82;;;5.40;99.90;;;;;;5102519;27;20716;-51
2021/03/03 04:20:09;;;;;;;17.83;12.38;;;5.10;99.90;;;;;;5115140;27;20197;-51
2021/03/03 04:22:35;;;;;;;18.13;13.00;;;5.20;99.90;;;;;;5112893;27;20465;-50
2021/03/03 04:25:01;;;;;;;17.30;12.57;;;4.60;99.90;;;;;;5133825;27;20192;-51
2021/03/03 04:27:27;;;;;;;16.80;11.68;;;4.90;99.90;;;;;;5114820;27;20273;-51
2021/03/03 04:29:53;;;;;;;23.10;12.83;;;4.90;99.90;;;;;;5114796;27;20204;-51
2021/03/03 04:32:18;;;;;;;17.40;13.20;;;5.00;99.90;;;;;;5114426;27;20190;-51
2021/03/03 04:34:44;;;;;;;19.97;12.80;;;4.80;99.90;;;;;;5114661;27;20185;-51
2021/03/03 04:37:09;;;;;;;18.43;12.30;;;5.20;99.90;;;;;;5133273;27;20203;-51
2021/03/03 04:39:35;;;;;;;19.67;13.40;;;4.90;99.90;;;;;;5114125;27;20179;-51
2021/03/03 04:42:03;;;;;;;21.20;13.00;;;5.10;99.90;;;;;;5115288;27;20180;-51
2021/03/03 04:44:28;;;;;;;18.30;13.15;;;4.90;99.90;;;;;;5113980;27;20175;-51
2021/03/03 04:46:54;;;;;;;20.47;12.33;;;5.10;99.90;;;;;;5114616;27;20204;-51
2021/03/03 04:49:20;;;;;;;18.20;13.17;;;5.00;99.90;;;;;;5113732;27;20643;-51
2021/03/03 04:51:45;;;;;;;20.53;13.43;;;5.10;99.90;;;;;;5114011;27;20207;-51
2021/03/03 04:54:11;;;;;;;18.77;12.27;;;5.30;99.90;;;;;;5114157;27;20180;-51
2021/03/03 04:56:36;;;;;;;17.13;12.07;;;5.30;99.90;;;;;;5113883;27;20470;-51
2021/03/03 04:59:02;;;;;;;25.73;12.93;;;5.30;99.90;;;;;;5114397;27;20190;-51
2021/03/03 05:01:30;;;;;;;23.77;12.68;;;5.20;99.90;;;;;;5114335;27;20190;-51
2021/03/03 05:03:56;;;;;;;20.58;13.77;;;5.00;99.90;;;;;;5113576;27;20585;-51
2021/03/03 05:06:21;;;;;;;20.80;12.83;;;5.00;99.90;;;;;;5113844;27;20214;-51
2021/03/03 05:08:47;;;;;;;18.20;13.07;;;4.90;99.90;;;;;;5113269;27;20176;-51
2021/03/03 05:11:12;;;;;;;22.43;13.80;;;5.20;99.90;;;;;;5113789;27;20207;-51
2021/03/03 05:13:38;;;;;;;17.83;12.87;;;5.10;99.90;;;;;;5113768;27;20579;-50
2021/03/03 05:16:04;;;;;;;20.60;12.80;;;5.10;99.90;;;;;;5106783;28;20589;-51
2021/03/03 05:18:30;;;;;;;19.90;14.03;;;5.10;99.90;;;;;;5112342;27;20197;-51
2021/03/03 05:20:55;;;;;;;17.33;11.93;;;5.10;99.90;;;;;;5110265;27;20444;-51
2021/03/03 05:23:32;;;;;;;17.57;12.67;;;5.20;99.90;;;;;;5131029;27;20180;-51
2021/03/03 05:25:59;;;;;;;19.90;14.18;;;5.30;99.90;;;;;;5131866;27;20210;-51
2021/03/03 05:28:25;;;;;;;25.45;13.00;;;5.50;99.90;;;;;;5113422;27;20369;-51
2021/03/03 05:30:50;;;;;;;22.07;13.40;;;5.20;99.90;;;;;;5113143;27;20291;-51
2021/03/03 05:33:30;;;;;;;19.53;12.90;;;5.30;99.90;;;;;;5113538;27;20780;-51
2021/03/03 05:35:59;;;;;;;22.10;14.35;;;4.90;99.90;;;;;;5099495;27;20426;-51
2021/03/03 05:38:25;;;;;;;20.67;13.60;;;5.30;99.90;;;;;;5132109;27;20237;-51
2021/03/03 05:40:53;;;;;;;16.65;13.25;;;5.00;99.90;;;;;;5111969;27;20222;-51
2021/03/03 05:43:19;;;;;;;21.50;13.82;;;5.10;99.90;;;;;;5113001;27;20275;-51
2021/03/03 05:45:47;;;;;;;20.63;12.90;;;5.00;99.90;;;;;;5111801;27;20497;-51
2021/03/03 05:48:19;;;;;;;22.00;13.30;;;5.40;99.90;;;;;;5095438;28;20798;-51
2021/03/03 05:50:47;;;;;;;17.35;11.93;;;5.10;99.90;;;;;;5108082;27;20287;-51
2021/03/03 05:53:17;;;;;;;17.88;13.88;;;5.20;99.90;;;;;;5105791;27;20183;-51
2021/03/03 05:55:43;;;;;;;20.45;13.55;;;5.30;99.90;;;;;;5107850;27;20263;-51
2021/03/03 05:58:10;;;;;;;22.05;14.27;;;4.70;99.90;;;;;;5111455;27;20525;-51
2021/03/03 06:00:37;;;;;;;18.38;13.50;;;5.20;99.90;;;;;;5109425;27;20208;-51
2021/03/03 06:03:03;;;;;;;20.42;14.13;;;5.40;99.90;;;;;;5120873;27;20240;-51
2021/03/03 06:05:31;;;;;;;19.02;12.73;;;5.30;99.90;;;;;;5103979;27;20188;-50
2021/03/03 06:07:57;;;;;;;21.42;13.68;;;5.50;99.90;;;;;;5113012;27;20219;-51
2021/03/03 06:10:23;;;;;;;27.60;13.43;;;5.70;99.90;;;;;;5110529;27;20225;-52
2021/03/03 06:12:49;;;;;;;23.60;13.87;;;5.40;99.90;;;;;;5112059;27;20242;-52
2021/03/03 06:15:21;;;;;;;19.95;13.30;;;5.40;99.90;;;;;;5172968;27;20529;-51
2021/03/03 06:17:47;;;;;;;23.53;13.47;;;5.40;99.90;;;;;;5128535;27;20710;-51
2021/03/03 06:20:13;;;;;;;23.08;14.30;;;5.30;99.90;;;;;;5126908;27;20180;-56
2021/03/03 06:22:39;;;;;;;21.05;13.20;;;5.50;99.90;;;;;;5122869;27;20199;-51
2021/03/03 06:25:21;;;;;;;21.63;12.40;;;5.70;99.90;;;;;;5127161;27;20190;-52
2021/03/03 06:27:47;;;;;;;32.58;14.57;;;5.50;99.90;;;;;;5125285;27;20704;-54
2021/03/03 06:30:17;;;;;;;23.42;14.93;;;5.20;99.90;;;;;;5127825;27;20217;-54
2021/03/03 06:32:52;;;;;;;17.50;13.18;;;5.30;99.90;;;;;;5134906;27;20616;-54
2021/03/03 06:35:20;;;;;;;20.23;13.88;;;5.30;99.90;;;;;;5139568;27;20561;-53
2021/03/03 06:37:56;;;;;;;20.23;13.60;;;5.10;99.90;;;;;;5141457;27;20219;-52
2021/03/03 06:40:22;;;;;;;33.70;22.33;;;5.20;99.90;;;;;;5111561;27;20728;-52
2021/03/03 06:42:48;;;;;;;25.65;15.50;;;5.50;99.90;;;;;;5122681;27;20267;-51
2021/03/03 06:45:30;;;;;;;26.27;15.57;;;5.50;99.90;;;;;;5126533;27;20616;-52
2021/03/03 06:47:57;;;;;;;19.20;14.35;;;5.40;99.90;;;;;;5120555;27;20533;-52
2021/03/03 06:50:34;;;;;;;18.50;14.20;;;5.00;99.90;;;;;;5118845;27;20208;-51
2021/03/03 06:52:59;;;;;;;21.67;13.07;;;5.70;99.90;;;;;;5119831;27;20553;-52
2021/03/03 06:55:46;;;;;;;23.03;13.80;;;5.90;99.90;;;;;;5127610;27;20188;-52
2021/03/03 06:58:31;;;;;;;20.00;14.75;;;5.80;99.90;;;;;;5123847;27;20775;-52
2021/03/03 07:00:59;;;;;;;21.38;14.98;;;6.10;99.90;;;;;;5144317;27;20267;-52
2021/03/03 07:03:36;;;;;;;19.70;14.80;;;6.10;99.90;;;;;;5142919;27;20221;-53
2021/03/03 07:06:03;;;;;;;19.35;14.23;;;5.90;99.90;;;;;;5123472;27;20250;-52
2021/03/03 07:08:29;;;;;;;24.88;16.70;;;6.00;99.90;;;;;;5123858;27;20221;-50
2021/03/03 07:10:55;;;;;;;28.20;14.82;;;6.20;99.90;;;;;;5136615;27;20536;-51
2021/03/03 07:13:37;;;;;;;23.10;14.13;;;6.10;99.90;;;;;;5122692;27;20206;-51
2021/03/03 07:16:07;;;;;;;23.08;16.33;;;6.40;99.90;;;;;;5120432;27;20547;-52
2021/03/03 07:18:39;;;;;;;23.90;14.93;;;6.60;99.90;;;;;;5145182;27;20191;-54
2021/03/03 07:21:07;;;;;;;22.17;14.27;;;6.60;99.90;;;;;;5125777;27;20178;-53
2021/03/03 07:23:49;;;;;;;20.98;14.68;;;6.50;99.90;;;;;;5120232;27;20193;-53
2021/03/03 07:26:17;;;;;;;25.90;15.27;;;6.40;99.90;;;;;;5109139;27;20224;-51
2021/03/03 07:28:43;;;;;;;24.85;16.05;;;6.70;99.90;;;;;;5107528;27;20313;-54
2021/03/03 07:31:11;;;;;;;24.60;14.60;;;6.50;99.90;;;;;;5107567;27;20186;-51
2021/03/03 07:33:37;;;;;;;21.55;15.02;;;6.70;99.90;;;;;;5118594;27;20206;-52
2021/03/03 07:36:05;;;;;;;20.17;15.13;;;6.90;99.90;;;;;;5125728;27;20683;-52
2021/03/03 07:38:41;;;;;;;21.85;15.10;;;7.00;99.90;;;;;;5112534;27;20609;-52
2021/03/03 07:41:11;;;;;;;19.85;14.25;;;7.20;99.90;;;;;;5109273;27;20606;-52
2021/03/03 07:43:39;;;;;;;17.63;14.25;;;7.20;99.90;;;;;;5108598;27;20281;-51
2021/03/03 07:46:08;;;;;;;24.60;14.40;;;7.00;99.90;;;;;;5106771;27;20207;-50
2021/03/03 07:48:36;;;;;;;20.40;14.02;;;7.30;99.90;;;;;;5109168;27;20303;-52
2021/03/03 07:51:05;;;;;;;20.30;12.90;;;7.20;99.90;;;;;;5113010;27;20270;-52
2021/03/03 07:53:32;;;;;;;23.27;14.18;;;7.60;99.90;;;;;;5105411;27;20469;-52
2021/03/03 07:55:59;;;;;;;23.83;14.65;;;7.30;99.90;;;;;;5110779;27;20182;-51
2021/03/03 07:58:28;;;;;;;22.77;13.57;;;7.60;99.90;;;;;;5106226;27;20470;-51
2021/03/03 08:00:54;;;;;;;20.33;14.48;;;7.80;99.90;;;;;;5101831;27;20700;-51
2021/03/03 08:03:46;;;;;;;19.73;13.35;;;7.80;99.90;;;;;;5106294;27;20203;-51
2021/03/03 08:06:25;;;;;;;21.75;13.65;;;8.30;99.90;;;;;;5107449;27;20233;-53
2021/03/03 08:09:06;;;;;;;27.65;15.50;;;8.10;99.50;;;;;;5106310;27;20194;-54
2021/03/03 08:11:36;;;;;;;22.10;14.68;;;8.10;99.70;;;;;;5105387;27;20694;-53
2021/03/03 08:14:02;;;;;;;21.67;14.25;;;8.30;99.60;;;;;;5120052;27;20229;-52
2021/03/03 08:16:28;;;;;;;28.60;16.48;;;8.30;99.70;;;;;;5126655;27;20195;-52
2021/03/03 08:18:56;;;;;;;22.57;14.70;;;8.20;99.40;;;;;;5124201;27;20754;-52
2021/03/03 08:21:25;;;;;;;26.95;14.55;;;8.60;98.90;;;;;;5127954;27;20297;-51
2021/03/03 08:23:53;;;;;;;25.23;15.45;;;8.60;98.50;;;;;;5110027;27;20277;-51
2021/03/03 08:26:19;;;;;;;23.77;15.60;;;8.70;98.30;;;;;;5110664;27;20211;-52
2021/03/03 08:28:52;;;;;;;29.40;16.40;;;8.70;98.00;;;;;;5111552;27;20183;-52
2021/03/03 08:31:20;;;;;;;20.92;14.27;;;9.00;98.10;;;;;;5112223;27;20202;-52
2021/03/03 08:33:49;;;;;;;22.80;15.25;;;9.00;97.80;;;;;;5105951;27;20199;-54
2021/03/03 08:36:18;;;;;;;22.92;15.15;;;8.80;98.00;;;;;;5108925;27;20619;-51
2021/03/03 08:38:45;;;;;;;23.75;15.75;;;9.20;97.80;;;;;;5109732;27;20183;-50
2021/03/03 08:41:16;;;;;;;22.42;14.73;;;9.10;97.60;;;;;;5106187;27;20848;-51
2021/03/03 08:43:44;;;;;;;17.95;13.73;;;9.20;97.50;;;;;;5107257;27;20685;-54
2021/03/03 08:46:19;;;;;;;18.02;13.65;;;9.40;96.90;;;;;;5107762;27;20589;-53
2021/03/03 08:48:57;;;;;;;18.67;13.88;;;9.90;96.50;;;;;;5100478;27;20666;-54
2021/03/03 08:51:36;;;;;;;18.35;14.65;;;10.00;95.20;;;;;;5102278;27;20194;-53
2021/03/03 08:54:10;;;;;;;24.60;14.68;;;10.10;94.90;;;;;;5102281;27;20207;-51
2021/03/03 08:56:45;;;;;;;25.90;15.60;;;10.50;94.70;;;;;;5107729;27;20208;-50
2021/03/03 08:59:30;;;;;;;19.80;15.88;;;10.60;94.30;;;;;;5106257;27;20217;-50
2021/03/03 09:02:12;;;;;;;24.50;15.13;;;10.90;93.90;;;;;;5107834;27;20181;-50
2021/03/03 09:04:38;;;;;;;21.48;14.60;;;11.00;93.20;;;;;;5109459;27;20667;-52
2021/03/03 09:07:07;;;;;;;20.60;15.47;;;10.90;92.80;;;;;;5109829;27;20214;-52
2021/03/03 09:09:49;;;;;;;25.52;15.15;;;11.10;92.20;;;;;;5106937;27;20635;-53
2021/03/03 09:12:22;;;;;;;26.73;15.75;;;11.10;92.20;;;;;;5118682;27;20179;-53
2021/03/03 09:14:49;;;;;;;21.67;15.05;;;11.00;92.10;;;;;;5108744;27;20305;-54
2021/03/03 09:17:17;;;;;;;24.10;16.50;;;11.00;91.70;;;;;;5106103;27;20766;-53
2021/03/03 09:19:44;;;;;;;32.00;17.85;;;11.20;91.70;;;;;;5103121;27;20182;-54
2021/03/03 09:22:15;;;;;;;24.42;15.38;;;11.20;91.80;;;;;;5106402;27;20186;-53
2021/03/03 09:24:41;;;;;;;19.25;15.10;;;11.00;91.70;;;;;;5128041;27;20940;-53
2021/03/03 09:27:08;;;;;;;21.15;15.57;;;11.10;91.80;;;;;;5107069;27;20223;-52
2021/03/03 09:29:35;;;;;;;25.85;16.42;;;11.20;91.50;;;;;;5111089;27;20238;-52
2021/03/03 09:32:13;;;;;;;27.98;16.35;;;11.30;91.30;;;;;;5106156;27;20592;-53
2021/03/03 09:35:02;;;;;;;23.88;16.80;;;11.50;91.20;;;;;;5127638;27;20257;-53
2021/03/03 09:37:54;;;;;;;25.95;17.10;;;11.20;91.10;;;;;;5112711;27;20199;-54
2021/03/03 09:40:26;;;;;;;23.20;16.77;;;11.30;91.10;;;;;;5127017;27;20649;-54
2021/03/03 09:42:52;;;;;;;22.98;15.60;;;11.40;90.70;;;;;;5108988;27;20215;-54
2021/03/03 09:45:22;;;;;;;34.03;17.90;;;11.40;90.50;;;;;;5108023;27;20188;-52
2021/03/03 09:47:49;;;;;;;31.98;17.10;;;11.40;90.30;;;;;;5108261;27;20298;-53
2021/03/03 09:50:21;;;;;;;26.67;17.88;;;11.50;90.40;;;;;;5111759;27;20214;-54
2021/03/03 09:52:50;;;;;;;26.05;18.17;;;11.90;90.30;;;;;;5106961;27;20210;-55
2021/03/03 09:55:17;;;;;;;25.17;18.73;;;11.80;90.10;;;;;;5110857;27;20250;-54
2021/03/03 09:57:49;;;;;;;26.70;16.50;;;11.80;89.60;;;;;;5111646;27;20198;-54
2021/03/03 10:00:18;;;;;;;23.05;17.27;;;11.90;89.30;;;;;;5110742;27;20185;-55
2021/03/03 10:02:52;;;;;;;22.38;15.35;;;11.90;89.20;;;;;;5124875;27;20177;-53
2021/03/03 10:05:19;;;;;;;24.55;16.08;;;12.10;89.20;;;;;;5107345;28;20196;-54
2021/03/03 10:07:53;;;;;;;30.38;17.20;;;11.90;88.60;;;;;;5102793;27;20209;-53
2021/03/03 10:10:21;;;;;;;23.23;16.95;;;12.00;88.20;;;;;;5108413;28;20182;-52
2021/03/03 10:12:47;;;;;;;28.85;17.45;;;12.10;88.40;;;;;;5109046;28;20187;-53
2021/03/03 10:15:15;;;;;;;24.17;16.45;;;11.80;88.00;;;;;;5109281;28;20262;-54
2021/03/03 10:17:49;;;;;;;21.20;17.25;;;12.20;88.50;;;;;;5108591;28;20211;-52
2021/03/03 10:20:36;;;;;;;30.50;16.70;;;12.00;88.20;;;;;;5100205;28;20212;-54
2021/03/03 10:23:09;;;;;;;24.33;15.63;;;12.20;88.80;;;;;;5101585;28;20186;-54
2021/03/03 10:25:41;;;;;;;25.95;17.63;;;12.00;88.50;;;;;;5108519;28;20229;-54
2021/03/03 10:28:08;;;;;;;24.02;17.08;;;12.10;88.30;;;;;;5100917;28;20591;-55
2021/03/03 10:30:34;;;;;;;24.67;17.45;;;12.00;88.00;;;;;;5109683;28;20181;-55
2021/03/03 10:33:00;;;;;;;25.73;16.45;;;12.10;88.00;;;;;;5105038;28;20184;-53
2021/03/03 10:35:29;;;;;;;21.57;17.33;;;12.00;87.90;;;;;;5117885;28;20927;-54
2021/03/03 10:38:09;;;;;;;36.72;17.67;;;12.10;87.60;;;;;;5106101;28;20910;-54
2021/03/03 10:40:41;;;;;;;27.63;17.75;;;12.20;87.80;;;;;;5107566;28;20190;-54
2021/03/03 10:43:17;;;;;;;27.77;17.67;;;12.10;87.50;;;;;;5108608;28;20270;-54
2021/03/03 10:45:44;;;;;;;29.92;17.90;;;12.30;87.60;;;;;;5105028;27;20195;-51
2021/03/03 10:48:28;;;;;;;23.25;17.00;;;12.40;87.30;;;;;;5108366;28;20188;-52
2021/03/03 10:50:55;;;;;;;29.63;18.00;;;12.50;86.80;;;;;;5101927;28;20202;-53
2021/03/03 10:53:21;;;;;;;20.35;16.60;;;12.70;86.90;;;;;;5108044;28;20185;-53
2021/03/03 10:55:47;;;;;;;23.00;17.88;;;12.80;86.30;;;;;;5123500;28;20189;-53
2021/03/03 10:58:15;;;;;;;31.77;18.30;;;12.80;85.80;;;;;;5108957;27;20185;-55
2021/03/03 11:01:03;;;;;;;25.17;18.52;;;13.00;85.40;;;;;;5108051;27;20201;-56
2021/03/03 11:03:30;;;;;;;31.65;17.30;;;13.10;84.80;;;;;;5111377;27;20620;-55
2021/03/03 11:05:59;;;;;;;25.15;18.40;;;13.30;84.60;;;;;;5111630;27;20190;-52
2021/03/03 11:08:26;;;;;;;25.58;17.45;;;13.40;83.80;;;;;;5109453;27;20194;-53
2021/03/03 11:11:05;;;;;;;20.80;16.23;;;13.70;82.90;;;;;;5130847;27;20194;-53
2021/03/03 11:13:33;;;;;;;24.02;17.73;;;13.70;82.20;;;;;;5110129;27;20213;-53
2021/03/03 11:15:58;;;;;;;21.33;17.67;;;13.50;82.40;;;;;;5132497;27;20178;-53
2021/03/03 11:18:24;;;;;;;23.13;16.60;;;13.60;83.10;;;;;;5113141;27;20643;-53
2021/03/03 11:20:49;;;;;;;25.03;17.27;;;13.70;82.10;;;;;;5114186;27;20273;-53
2021/03/03 11:23:15;;;;;;;23.37;18.63;;;13.90;81.90;;;;;;5105964;27;20251;-53
2021/03/03 11:25:41;;;;;;;20.03;17.37;;;13.90;81.50;;;;;;5113938;27;20179;-53
2021/03/03 11:28:07;;;;;;;26.17;17.70;;;14.00;81.10;;;;;;5111424;27;20715;-53
2021/03/03 11:30:33;;;;;;;28.80;17.77;;;13.60;80.80;;;;;;5109484;27;20432;-53
2021/03/03 11:33:02;;;;;;;23.13;18.00;;;14.00;80.50;;;;;;5113067;27;20298;-53
2021/03/03 11:35:27;;;;;;;25.75;18.25;;;13.90;80.60;;;;;;5105469;27;20207;-54
2021/03/03 11:37:53;;;;;;;28.43;18.33;;;13.90;80.90;;;;;;5115765;27;20660;-53
2021/03/03 11:40:19;;;;;;;25.20;18.47;;;14.00;81.00;;;;;;5113572;27;20215;-53
2021/03/03 11:42:44;;;;;;;23.10;16.93;;;14.00;80.70;;;;;;5113586;27;20552;-53
2021/03/03 11:45:11;;;;;;;23.70;17.13;;;14.10;80.60;;;;;;5109671;27;21059;-56
2021/03/03 11:47:36;;;;;;;23.67;18.05;;;14.10;80.10;;;;;;5111205;27;20217;-56
2021/03/03 11:50:04;;;;;;;19.87;17.73;;;13.90;80.40;;;;;;5111428;27;20683;-56
2021/03/03 11:52:29;;;;;;;24.30;18.23;;;14.10;80.80;;;;;;5112731;27;20713;-55
2021/03/03 11:54:55;;;;;;;23.63;16.67;;;14.10;81.30;;;;;;5113214;27;20306;-55
2021/03/03 11:57:20;;;;;;;27.83;17.40;;;14.00;81.10;;;;;;5122820;27;20213;-54
2021/03/03 11:59:46;;;;;;;25.40;18.40;;;13.80;80.50;;;;;;5127386;27;20191;-52
2021/03/03 12:02:14;;;;;;;30.70;16.93;;;14.10;80.80;;;;;;5114043;27;20183;-52
2021/03/03 12:04:39;;;;;;;23.63;17.13;;;14.20;80.90;;;;;;5133155;27;20210;-56
2021/03/03 12:07:05;;;;;;;21.33;16.63;;;14.10;80.40;;;;;;5111328;27;20226;-53
2021/03/03 12:09:31;;;;;;;23.73;18.77;;;14.00;80.00;;;;;;5113827;27;20239;-54
2021/03/03 12:11:56;;;;;;;22.50;18.30;;;14.20;80.00;;;;;;5128488;27;20191;-54
2021/03/03 12:14:22;;;;;;;23.73;18.33;;;14.30;79.70;;;;;;5109321;27;20213;-54
2021/03/03 12:16:48;;;;;;;21.20;17.60;;;14.30;79.50;;;;;;5113934;27;20237;-56
2021/03/03 12:19:13;;;;;;;23.23;19.03;;;14.00;79.20;;;;;;5107772;27;20199;-53
2021/03/03 12:21:39;;;;;;;24.10;17.43;;;14.20;79.80;;;;;;5107398;27;20187;-55
2021/03/03 12:24:05;;;;;;;25.80;17.20;;;14.30;79.70;;;;;;5102228;27;20228;-55
2021/03/03 12:26:30;;;;;;;21.95;17.55;;;14.40;79.60;;;;;;5108378;27;20682;-54
2021/03/03 12:28:56;;;;;;;21.53;17.27;;;14.10;79.10;;;;;;5112505;27;20182;-53
2021/03/03 12:31:22;;;;;;;23.10;18.10;;;14.30;79.40;;;;;;5107974;27;20231;-52
2021/03/03 12:33:47;;;;;;;21.07;17.77;;;14.60;79.30;;;;;;5108873;27;20206;-52
2021/03/03 12:36:13;;;;;;;24.63;18.53;;;14.30;78.40;;;;;;5109891;27;20222;-54
2021/03/03 12:38:39;;;;;;;27.07;17.97;;;14.30;78.90;;;;;;5128446;27;20233;-53
2021/03/03 12:41:04;;;;;;;19.90;15.93;;;14.40;79.00;;;;;;5107506;27;20220;-53
2021/03/03 12:43:31;;;;;;;25.13;18.23;;;14.50;78.60;;;;;;5109703;27;20512;-52